createdAt,value
2019-02-12T00:03:45.017Z,81.20
2019-02-12T00:07:50.101Z,81.21
2019-02-12T00:11:55.349Z,81.13
2019-02-12T00:16:00.519Z,81.02
2019-02-12T00:20:05.748Z,81.06
2019-02-12T00:24:10.838Z,81.15
2019-02-12T00:28:15.991Z,81.25
2019-02-12T00:32:21.498Z,81.37
2019-02-12T00:36:26.946Z,81.43
2019-02-12T00:40:32.009Z,81.58
2019-02-12T00:44:37.195Z,81.63
2019-02-12T00:48:42.409Z,81.70
2019-02-12T00:52:47.471Z,81.66
2019-02-12T00:56:52.663Z,81.68
2019-02-12T01:00:57.727Z,81.71
2019-02-12T01:05:04.366Z,81.78
2019-02-12T01:09:09.589Z,81.91
2019-02-12T01:13:14.765Z,82.00
2019-02-12T01:17:20.010Z,82.12
2019-02-12T01:21:26.422Z,82.11
2019-02-12T01:25:31.934Z,81.96
2019-02-12T01:29:38.007Z,82.00
2019-02-12T01:33:43.163Z,82.00
2019-02-12T01:37:48.287Z,81.86
2019-02-12T01:41:54.446Z,81.67
2019-02-12T01:45:59.360Z,81.59
2019-02-12T01:50:04.646Z,81.58
2019-02-12T01:54:09.828Z,81.64
2019-02-12T01:58:14.884Z,81.54
2019-02-12T02:02:19.936Z,81.68
2019-02-12T02:06:25.014Z,81.67
2019-02-12T02:10:30.048Z,81.73
2019-02-12T02:14:35.106Z,81.79
2019-02-12T02:18:40.155Z,81.83
2019-02-12T02:22:45.257Z,81.79
2019-02-12T02:26:50.355Z,81.89
2019-02-12T02:30:55.773Z,81.92
2019-02-12T02:35:00.836Z,81.91
2019-02-12T02:39:06.459Z,81.87
2019-02-12T02:43:12.526Z,81.88
2019-02-12T02:47:17.620Z,82.02
2019-02-12T02:51:23.202Z,82.02
2019-02-12T02:55:28.254Z,82.14
2019-02-12T02:59:33.453Z,82.27
2019-02-12T03:03:38.522Z,82.28
2019-02-12T03:07:43.620Z,82.28
2019-02-12T03:11:48.754Z,82.17
2019-02-12T03:15:53.811Z,82.29
2019-02-12T03:19:58.996Z,82.37
2019-02-12T03:24:04.163Z,82.37
2019-02-12T03:28:09.257Z,82.38
2019-02-12T03:32:14.409Z,82.46
2019-02-12T03:36:19.581Z,82.54
2019-02-12T03:40:24.731Z,82.59
2019-02-12T03:44:29.834Z,82.62
2019-02-12T03:48:34.923Z,82.72
2019-02-12T03:52:40.033Z,82.74
2019-02-12T03:56:45.172Z,82.75
2019-02-12T04:00:50.423Z,82.79
2019-02-12T04:04:55.530Z,82.87
2019-02-12T04:09:00.980Z,82.94
2019-02-12T04:13:08.079Z,82.93
2019-02-12T04:17:13.131Z,82.94
2019-02-12T04:21:18.261Z,83.01
2019-02-12T04:25:23.383Z,83.05
2019-02-12T04:29:28.553Z,83.08
2019-02-12T04:33:33.663Z,83.08
2019-02-12T04:37:38.711Z,83.11
2019-02-12T04:41:44.814Z,83.15
2019-02-12T04:45:49.999Z,83.26
2019-02-12T04:49:55.122Z,83.29
2019-02-12T04:54:00.222Z,83.35
2019-02-12T04:58:05.351Z,83.35
2019-02-12T05:02:10.472Z,83.43
2019-02-12T05:06:15.655Z,83.38
2019-02-12T05:10:21.465Z,83.32
2019-02-12T05:14:26.655Z,83.37
2019-02-12T05:18:31.763Z,83.39
2019-02-12T05:22:43.604Z,83.41
2019-02-12T05:26:43.753Z,83.42
2019-02-12T05:30:48.780Z,83.45
2019-02-12T05:34:55.864Z,83.38
2019-02-12T05:39:01.076Z,83.39
2019-02-12T05:43:07.362Z,83.35
2019-02-12T05:47:12.553Z,83.34
2019-02-12T05:51:17.927Z,83.34
2019-02-12T05:55:22.955Z,83.37
2019-02-12T05:59:28.552Z,83.40
2019-02-12T06:03:33.737Z,83.40
2019-02-12T06:07:38.829Z,83.40
2019-02-12T06:11:44.045Z,83.36
2019-02-12T06:15:49.219Z,83.38
2019-02-12T06:19:54.264Z,83.38
2019-02-12T06:23:59.466Z,83.38
2019-02-12T06:28:04.646Z,83.40
2019-02-12T06:32:09.824Z,83.41
2019-02-12T06:36:14.814Z,83.40
2019-02-12T06:40:19.996Z,83.42
2019-02-12T06:44:25.933Z,83.42
2019-02-12T06:48:31.065Z,83.41
2019-02-12T06:52:36.167Z,83.41
2019-02-12T06:56:41.271Z,83.36
2019-02-12T07:00:46.362Z,83.33
2019-02-12T07:04:51.411Z,83.31
2019-02-12T07:09:14.209Z,83.30
2019-02-12T07:14:04.501Z,83.27
2019-02-12T07:18:46.128Z,83.21
2019-02-12T07:22:59.250Z,83.13
2019-02-12T07:27:37.404Z,83.09
2019-02-12T07:32:21.690Z,83.00
2019-02-12T07:36:45.559Z,82.96
2019-02-12T07:41:20.118Z,82.95
2019-02-12T07:45:35.366Z,82.84
2019-02-12T07:49:58.865Z,82.70
2019-02-12T07:54:32.245Z,82.65
2019-02-12T07:59:25.046Z,82.58
2019-02-12T08:04:08.397Z,82.56
2019-02-12T08:08:50.492Z,82.57
2019-02-12T08:13:35.268Z,82.45
2019-02-12T08:18:23.555Z,82.33
2019-02-12T08:23:09.635Z,82.23
2019-02-12T08:28:15.109Z,82.12
2019-02-12T08:32:55.708Z,82.11
2019-02-12T08:37:27.926Z,82.01
2019-02-12T08:42:15.426Z,82.18
2019-02-12T08:47:16.315Z,82.33
2019-02-12T08:52:05.330Z,82.50
2019-02-12T08:56:20.589Z,82.68
2019-02-12T09:00:48.658Z,82.94
2019-02-12T09:05:29.961Z,83.10
2019-02-12T09:10:20.862Z,83.30
2019-02-12T09:14:55.175Z,83.39
2019-02-12T09:19:30.928Z,83.44
2019-02-12T09:24:13.709Z,83.42
2019-02-12T09:28:56.058Z,83.35
2019-02-12T09:33:44.605Z,83.30
2019-02-12T09:38:21.994Z,83.21
2019-02-12T09:42:50.830Z,83.03
2019-02-12T09:47:54.762Z,82.81
2019-02-12T09:52:12.829Z,82.81
2019-02-12T09:57:17.613Z,82.41
2019-02-12T10:01:42.894Z,82.07
2019-02-12T10:06:31.923Z,81.69
2019-02-12T10:11:18.906Z,81.43
2019-02-12T10:16:02.227Z,81.11
2019-02-12T10:20:35.918Z,80.92
2019-02-12T10:24:57.564Z,80.79
2019-02-12T10:29:29.138Z,80.64
2019-02-12T10:33:34.176Z,80.34
2019-02-12T10:37:39.265Z,79.65
2019-02-12T10:41:44.337Z,79.01
2019-02-12T10:45:49.492Z,78.44
2019-02-12T10:49:54.609Z,78.39
2019-02-12T10:53:59.633Z,77.98
2019-02-12T10:58:04.761Z,77.15
2019-02-12T11:02:09.869Z,77.21
2019-02-12T11:06:14.999Z,77.06
2019-02-12T11:10:20.087Z,76.94
2019-02-12T11:14:25.088Z,76.32
2019-02-12T11:18:30.145Z,76.05
2019-02-12T11:22:35.235Z,76.33
2019-02-12T11:26:40.292Z,75.53
2019-02-12T11:30:45.505Z,75.41
2019-02-12T11:34:50.486Z,74.78
2019-02-12T11:38:55.555Z,74.38
2019-02-12T11:43:00.898Z,73.87
2019-02-12T11:47:06.005Z,74.00
2019-02-12T11:51:11.135Z,73.69
2019-02-12T11:55:16.323Z,73.75
2019-02-12T11:59:21.422Z,72.29
2019-02-12T12:03:26.618Z,72.74
2019-02-12T12:07:31.752Z,72.02
2019-02-12T12:11:36.917Z,71.86
2019-02-12T12:15:42.033Z,71.78
2019-02-12T12:19:47.222Z,71.52
2019-02-12T12:23:52.318Z,71.01
2019-02-12T12:27:57.476Z,70.92
2019-02-12T12:32:02.532Z,70.87
2019-02-12T12:36:07.642Z,69.00
2019-02-12T12:40:12.969Z,65.84
2019-02-12T12:44:18.021Z,66.64
2019-02-12T12:48:23.127Z,67.17
2019-02-12T12:52:28.221Z,65.39
2019-02-12T12:56:33.287Z,64.34
2019-02-12T13:00:38.449Z,64.97
2019-02-12T13:04:43.492Z,65.67
2019-02-12T13:08:48.584Z,65.01
2019-02-12T13:12:53.634Z,64.74
2019-02-12T13:16:58.788Z,64.71
2019-02-12T13:21:04.137Z,65.43
2019-02-12T13:25:10.239Z,64.38
2019-02-12T13:29:15.751Z,62.45
2019-02-12T13:33:20.802Z,61.52
2019-02-12T13:37:25.981Z,61.44
2019-02-12T13:41:31.115Z,62.26
2019-02-12T13:45:36.223Z,62.85
2019-02-12T13:49:41.369Z,63.22
2019-02-12T13:53:46.471Z,63.86
2019-02-12T13:57:51.616Z,63.86
2019-02-12T14:01:56.754Z,63.96
2019-02-12T14:06:01.955Z,63.43
2019-02-12T14:10:07.266Z,61.86
2019-02-12T14:14:12.334Z,61.91
2019-02-12T14:18:17.420Z,60.10
2019-02-12T14:22:22.566Z,58.54
2019-02-12T14:26:27.722Z,58.67
2019-02-12T14:30:32.836Z,60.17
2019-02-12T14:34:38.012Z,61.10
2019-02-12T14:38:43.195Z,62.33
2019-02-12T14:42:48.336Z,62.63
2019-02-12T14:46:53.467Z,61.49
2019-02-12T14:50:58.505Z,61.09
2019-02-12T14:55:03.606Z,61.10
2019-02-12T14:59:08.817Z,60.46
2019-02-12T15:03:13.916Z,61.91
2019-02-12T15:07:19.001Z,61.80
2019-02-12T15:11:24.074Z,61.64
2019-02-12T15:15:30.130Z,61.81
2019-02-12T15:19:35.202Z,61.05
2019-02-12T15:23:40.348Z,60.22
2019-02-12T15:27:45.417Z,58.33
2019-02-12T15:31:50.526Z,57.19
2019-02-12T15:35:55.555Z,56.66
2019-02-12T15:40:00.937Z,57.70
2019-02-12T15:44:06.058Z,59.61
2019-02-12T15:48:11.224Z,59.61
2019-02-12T15:52:16.366Z,59.53
2019-02-12T15:56:21.527Z,59.22
2019-02-12T16:00:26.579Z,59.89
2019-02-12T16:04:31.648Z,61.66
2019-02-12T16:08:36.766Z,63.28
2019-02-12T16:12:42.140Z,63.28
2019-02-12T16:16:47.092Z,63.51
2019-02-12T16:20:52.176Z,64.82
2019-02-12T16:24:57.653Z,64.82
2019-02-12T16:29:02.889Z,65.32
2019-02-12T16:33:08.095Z,65.33
2019-02-12T16:37:13.196Z,65.36
2019-02-12T16:41:18.383Z,65.91
2019-02-12T16:45:29.942Z,65.99
2019-02-12T16:49:35.101Z,66.33
2019-02-12T16:53:40.253Z,66.67
2019-02-12T16:57:45.680Z,66.58
2019-02-12T17:01:51.140Z,65.96
2019-02-12T17:05:57.467Z,65.51
2019-02-12T17:10:02.649Z,65.53
2019-02-12T17:14:07.768Z,65.55
2019-02-12T17:18:13.020Z,65.46
2019-02-12T17:22:18.129Z,65.58
2019-02-12T17:26:23.433Z,65.62
2019-02-12T17:30:28.547Z,65.41
2019-02-12T17:34:33.684Z,66.13
2019-02-12T17:38:38.852Z,66.65
2019-02-12T17:42:44.065Z,66.80
2019-02-12T17:46:49.262Z,67.34
2019-02-12T17:50:54.426Z,67.34
2019-02-12T17:54:59.465Z,67.62
2019-02-12T17:59:04.587Z,68.27
2019-02-12T18:03:09.805Z,68.08
2019-02-12T18:07:14.876Z,68.56
2019-02-12T18:11:20.050Z,68.96
2019-02-12T18:15:25.194Z,68.77
2019-02-12T18:19:30.326Z,69.00
2019-02-12T18:23:35.365Z,69.25
2019-02-12T18:27:41.261Z,69.81
2019-02-12T18:31:46.432Z,69.46
2019-02-12T18:35:51.567Z,69.51
2019-02-12T18:39:56.698Z,69.21
2019-02-12T18:44:01.814Z,69.00
2019-02-12T18:48:06.965Z,68.82
2019-02-12T18:52:15.135Z,69.32
2019-02-12T18:56:20.704Z,69.21
2019-02-12T19:00:25.791Z,69.01
2019-02-12T19:04:30.869Z,69.22
2019-02-12T19:08:36.494Z,69.26
2019-02-12T19:12:41.601Z,69.26
2019-02-12T19:16:46.773Z,69.50
2019-02-12T19:20:51.975Z,69.69
2019-02-12T19:24:57.072Z,69.34
2019-02-12T19:29:02.087Z,69.33
2019-02-12T19:33:07.212Z,69.78
2019-02-12T19:37:12.607Z,69.83
2019-02-12T19:41:17.714Z,69.76
2019-02-12T19:45:23.771Z,69.67
2019-02-12T19:49:28.970Z,69.79
2019-02-12T19:53:34.079Z,69.71
2019-02-12T19:57:39.271Z,69.76
2019-02-12T20:01:44.390Z,69.84
2019-02-12T20:05:49.501Z,69.95
2019-02-12T20:09:54.678Z,70.32
2019-02-12T20:13:59.819Z,69.80
2019-02-12T20:18:04.981Z,69.86
2019-02-12T20:22:10.100Z,70.04
2019-02-12T20:26:15.274Z,70.35
2019-02-12T20:30:21.227Z,70.53
2019-02-12T20:34:26.284Z,70.51
2019-02-12T20:38:31.505Z,70.58
2019-02-12T20:42:36.669Z,70.32
2019-02-12T20:46:41.848Z,70.50
2019-02-12T20:50:46.966Z,70.15
2019-02-12T20:54:52.121Z,69.88
2019-02-12T20:58:57.269Z,70.07
2019-02-12T21:03:02.711Z,70.30
2019-02-12T21:07:07.883Z,70.47
2019-02-12T21:11:13.052Z,70.80
2019-02-12T21:15:19.437Z,70.86
2019-02-12T21:19:24.525Z,71.05
2019-02-12T21:23:29.688Z,71.17
2019-02-12T21:27:34.873Z,71.28
2019-02-12T21:31:39.917Z,71.17
2019-02-12T21:35:45.130Z,71.47
2019-02-12T21:39:51.246Z,71.60
2019-02-12T21:43:56.440Z,71.70
2019-02-12T21:48:01.526Z,71.80
2019-02-12T21:52:06.652Z,71.76
2019-02-12T21:56:11.816Z,71.97
2019-02-12T22:00:17.040Z,72.01
2019-02-12T22:04:22.148Z,71.82
2019-02-12T22:08:27.213Z,71.98
2019-02-12T22:12:32.225Z,72.06
2019-02-12T22:16:37.835Z,72.30
2019-02-12T22:20:45.394Z,72.32
2019-02-12T22:24:50.413Z,72.38
2019-02-12T22:28:55.563Z,72.38
2019-02-12T22:33:00.633Z,72.61
2019-02-12T22:37:05.741Z,72.67
2019-02-12T22:41:11.205Z,72.63
2019-02-12T22:45:17.644Z,73.08
2019-02-12T22:49:22.769Z,73.09
2019-02-12T22:53:27.899Z,73.16
2019-02-12T22:57:33.053Z,73.33
2019-02-12T23:01:39.434Z,73.11
2019-02-12T23:05:44.550Z,72.95
2019-02-12T23:09:49.720Z,72.58
2019-02-12T23:13:54.947Z,72.94
2019-02-12T23:18:00.057Z,72.89
2019-02-12T23:22:05.228Z,73.23
2019-02-12T23:26:10.385Z,73.07
2019-02-12T23:30:15.559Z,72.95
2019-02-12T23:34:20.637Z,73.34
2019-02-12T23:38:25.776Z,73.15
2019-02-12T23:42:30.834Z,73.12
2019-02-12T23:46:35.937Z,73.00
2019-02-12T23:50:41.159Z,73.03
2019-02-12T23:54:46.366Z,73.20
2019-02-12T23:58:51.510Z,73.01
